Uni Wealth — VRFV4 — position and weather

sailwx.info

Track history (hours):
 
Tides and Currents Weather Stations Pressure Air Temp Water Temp Dewpoint Dewpoint Depression Visibility Wind Speed Wind Dir Waves Ship Positions

Uni Wealth

Last reported at 2015-Feb-23 02:34 UTC. Time now 2015-Feb-28 15:56 UTC.
Position N 35°60' W 005°14'.

Length 170 m; draft 9.3 m.

Type: Cargo ship. MMSI: 477621200.

Date/timePositionNaut miles runAvg speedWind from/ knotsBaromVisibWave heightAir tempDewpointWater temp
2015-Feb-23 02:34N 35°60' W 005°14'  
2015-Feb-19 23:04N 36°04' W 023°57'712.8
2015-Feb-19 22:33N 36°04' W 024°05'1312.7
2015-Feb-19 21:34N 36°03' W 024°21'1212.4
2015-Feb-19 20:33N 36°02' W 024°36'1212.1
2015-Feb-19 19:33N 35°60' W 024°51'1212.1
2015-Feb-19 18:34N 35°58' W 025°06'1212.1
2015-Feb-19 17:33N 35°57' W 025°20'1212.1
2015-Feb-19 16:33N 35°56' W 025°35'1211.7
2015-Feb-19 15:33N 35°54' W 025°50'  
Track history (hours):
 
Tides and Currents Weather Stations Pressure Air Temp Water Temp Dewpoint Dewpoint Depression Visibility Wind Speed Wind Dir Waves Ship Positions

Uni Wealth

Last reported at 2015-Feb-23 02:34 UTC. Time now 2015-Feb-28 15:56 UTC.
Position N 35°60' W 005°14'.

Length 170 m; draft 9.3 m.

Type: Cargo ship. MMSI: 477621200.

Date/timePositionNaut miles runAvg speedWind from/ knotsBaromVisibWave heightAir tempDewpointWater temp
2015-Feb-23 02:34N 35°60' W 005°14'  
2015-Feb-19 23:04N 36°04' W 023°57'712.8
2015-Feb-19 22:33N 36°04' W 024°05'1312.7
2015-Feb-19 21:34N 36°03' W 024°21'1212.4
2015-Feb-19 20:33N 36°02' W 024°36'1212.1
2015-Feb-19 19:33N 35°60' W 024°51'1212.1
2015-Feb-19 18:34N 35°58' W 025°06'1212.1
2015-Feb-19 17:33N 35°57' W 025°20'1212.1
2015-Feb-19 16:33N 35°56' W 025°35'1211.7
2015-Feb-19 15:33N 35°54' W 025°50'  

Dump ship's entire track history